Time;durP1;ratioP1;P1;durP2;ratioP2;P2;SDS_P1;SDS_P2;PMS_P1;PMS_P2;Temp;Humidity;BMP_temperature;BMP_pressure;BME280_temperature;BME280_humidity;BME280_pressure;Samples;Min_cycle;Max_cycle;Signal;HPM_P1;HPM_P2
2022/01/03 08:01:50;;;;;;;9.50;2.40;;;;;;;10.43;85.83;99513.50;5513332;23;20492;-77
2022/01/03 08:04:15;;;;;;;8.60;1.92;;;;;;;10.36;85.32;99505.19;4867396;29;20045;-76
2022/01/03 08:06:41;;;;;;;10.60;1.95;;;;;;;10.45;85.37;99509.69;4853189;29;20104;-76
2022/01/03 08:09:06;;;;;;;6.68;1.55;;;;;;;10.43;85.68;99509.00;4852734;29;20056;-77
2022/01/03 08:11:31;;;;;;;9.27;1.92;;;;;;;10.49;85.75;99510.22;4869094;29;20068;-75
2022/01/03 08:13:57;;;;;;;8.00;1.70;;;;;;;10.44;84.77;99510.69;4867899;29;20033;-77
2022/01/03 08:16:22;;;;;;;7.75;1.73;;;;;;;10.54;85.56;99521.31;4868167;29;20048;-76
2022/01/03 08:18:47;;;;;;;6.43;1.98;;;;;;;10.49;85.18;99515.56;4851769;29;20036;-76
2022/01/03 08:21:14;;;;;;;7.63;1.80;;;;;;;10.39;84.75;99523.63;4852478;29;20041;-77
2022/01/03 08:23:39;;;;;;;8.75;2.08;;;;;;;10.47;85.24;99528.25;4884553;29;20783;-75
2022/01/03 08:26:05;;;;;;;10.30;2.03;;;;;;;10.50;84.53;99523.44;4868823;29;20037;-74
2022/01/03 08:28:30;;;;;;;7.82;2.10;;;;;;;10.52;84.32;99525.97;4868585;29;20041;-75
2022/01/03 08:30:55;;;;;;;10.20;1.65;;;;;;;10.54;84.39;99521.31;4853125;29;20037;-75
2022/01/03 08:33:21;;;;;;;6.50;1.70;;;;;;;10.47;84.29;99523.75;4853470;29;20044;-76
2022/01/03 08:35:46;;;;;;;6.00;1.63;;;;;;;10.50;83.86;99519.94;4868836;29;20096;-75
2022/01/03 08:38:11;;;;;;;5.40;1.83;;;;;;;10.49;84.09;99516.41;4867629;29;20128;-75
2022/01/03 08:40:37;;;;;;;12.65;2.38;;;;;;;10.47;83.45;99506.88;4851719;29;20109;-75
2022/01/03 08:43:02;;;;;;;7.13;1.80;;;;;;;10.46;83.73;99508.69;4864997;29;20451;-70
2022/01/03 08:45:28;;;;;;;6.55;1.83;;;;;;;10.55;84.45;99521.16;4880490;29;20070;-70
2022/01/03 08:47:53;;;;;;;9.73;1.83;;;;;;;10.52;84.03;99508.09;4849812;29;20048;-70
2022/01/03 08:50:18;;;;;;;6.90;1.55;;;;;;;10.50;83.83;99502.06;4881679;29;20804;-70
2022/01/03 08:52:48;;;;;;;4.30;1.60;;;;;;;10.52;83.99;99508.09;4865583;29;20064;-70
2022/01/03 08:55:13;;;;;;;7.95;1.63;;;;;;;10.55;83.90;99514.97;4864739;29;20885;-70
2022/01/03 08:57:40;;;;;;;8.93;2.20;;;;;;;10.52;84.02;99508.09;4865229;29;20045;-70
2022/01/03 09:00:07;;;;;;;9.55;1.92;;;;;;;10.53;83.51;99516.97;4849485;29;20029;-70
2022/01/03 09:02:32;;;;;;;8.90;1.92;;;;;;;10.53;83.54;99519.63;4864482;29;20061;-70
2022/01/03 09:04:58;;;;;;;9.15;1.60;;;;;;;10.56;84.13;99527.34;4882029;29;20105;-70
2022/01/03 09:07:23;;;;;;;7.65;1.80;;;;;;;10.54;83.89;99516.81;4881940;29;20052;-70
2022/01/03 09:09:48;;;;;;;6.18;1.63;;;;;;;10.51;83.29;99510.94;4866417;29;20163;-71
2022/01/03 09:12:14;;;;;;;8.15;1.67;;;;;;;10.51;83.63;99503.75;4881709;29;20037;-70
2022/01/03 09:14:39;;;;;;;9.63;1.90;;;;;;;10.55;83.68;99509.63;4882336;29;20100;-70
2022/01/03 09:17:05;;;;;;;10.88;2.05;;;;;;;10.54;83.31;99511.47;4868796;29;20068;-70
2022/01/03 09:19:30;;;;;;;7.40;1.90;;;;;;;10.56;83.05;99509.50;4884881;29;20108;-70
2022/01/03 09:22:07;;;;;;;4.07;1.35;;;;;;;10.60;84.00;99515.38;4868867;29;20049;-70
2022/01/03 09:24:45;;;;;;;9.10;2.00;;;;;;;10.61;83.84;99517.91;4870365;29;20395;-70
2022/01/03 09:29:57;;;;;;;8.55;1.80;;;;;;;10.56;83.86;99508.66;4871047;29;20083;-70
2022/01/03 09:32:23;;;;;;;8.07;1.80;;;;;;;10.60;83.48;99496.66;4884248;29;20037;-70
2022/01/03 09:34:48;;;;;;;7.40;1.70;;;;;;;10.59;83.73;99509.19;4868055;29;20896;-70
2022/01/03 09:37:19;;;;;;;12.55;2.05;;;;;;;10.62;83.60;99497.34;4868135;29;20036;-70
2022/01/03 09:39:44;;;;;;;11.05;2.03;;;;;;;10.58;83.57;99488.78;4869236;29;20040;-71
2022/01/03 09:42:13;;;;;;;6.80;1.88;;;;;;;10.58;83.35;99506.66;4868430;29;20052;-70
2022/01/03 09:44:38;;;;;;;;;;;;;;;10.59;84.00;99492.31;4868275;29;20045;-70
2022/01/03 09:47:05;;;;;;;5.93;1.75;;;;;;;10.58;83.36;99501.31;4884329;29;19973;-70
2022/01/03 09:49:34;;;;;;;7.78;1.65;;;;;;;10.64;84.02;99484.66;4867614;29;21023;-69
2022/01/03 09:52:00;;;;;;;10.63;1.85;;;;;;;10.62;83.90;99486.66;4868223;29;20039;-70
2022/01/03 09:54:25;;;;;;;12.25;2.47;;;;;;;10.62;83.98;99492.84;4884118;29;20078;-69
2022/01/03 09:56:51;;;;;;;8.85;1.65;;;;;;;10.67;84.18;99479.03;4868380;29;20048;-70
2022/01/03 09:59:18;;;;;;;9.27;1.55;;;;;;;10.68;84.05;99483.38;4884317;29;20128;-70
2022/01/03 10:01:44;;;;;;;7.70;1.98;;;;;;;10.64;83.89;99488.19;4864192;29;20065;-70
2022/01/03 10:04:12;;;;;;;8.10;1.58;;;;;;;10.65;83.74;99494.38;4866372;29;20041;-70
2022/01/03 10:06:38;;;;;;;9.52;2.20;;;;;;;10.64;84.04;99482.84;4864151;29;20087;-70
2022/01/03 10:09:03;;;;;;;7.25;1.45;;;;;;;10.62;84.05;99473.28;4864897;29;20037;-71
2022/01/03 10:11:30;;;;;;;6.40;1.48;;;;;;;10.60;83.38;99486.81;4864331;29;20114;-70
2022/01/03 10:13:55;;;;;;;8.95;1.73;;;;;;;10.62;84.28;99483.97;4864507;29;20045;-71
2022/01/03 10:16:20;;;;;;;8.43;1.50;;;;;;;10.56;84.16;99473.88;4866089;29;20062;-71
2022/01/03 10:18:47;;;;;;;5.57;1.25;;;;;;;10.52;84.51;99477.84;4864354;29;20069;-70
2022/01/03 10:21:12;;;;;;;6.22;1.33;;;;;;;10.55;84.88;99469.53;4864352;29;20089;-70
2022/01/03 10:23:52;;;;;;;5.05;1.30;;;;;;;10.57;84.90;99478.25;4848422;29;20350;-71
2022/01/03 10:26:20;;;;;;;5.20;1.48;;;;;;;10.57;84.98;99476.41;4878620;29;20045;-70
2022/01/03 10:28:46;;;;;;;6.28;1.40;;;;;;;10.58;85.26;99469.22;4864396;29;20041;-70
2022/01/03 10:31:16;;;;;;;5.47;1.38;;;;;;;10.55;85.25;99461.50;4864107;29;20047;-70
2022/01/03 10:33:41;;;;;;;5.75;1.30;;;;;;;10.52;84.86;99459.13;4848622;29;20432;-71
2022/01/03 10:36:11;;;;;;;6.00;1.23;;;;;;;10.53;85.10;99468.84;4864454;29;20049;-71
2022/01/03 10:38:43;;;;;;;5.63;1.08;;;;;;;10.56;85.25;99465.88;4865376;29;20042;-70
2022/01/03 10:41:19;;;;;;;3.00;0.93;;;;;;;10.53;85.29;99463.50;4862855;29;20113;-70
2022/01/03 10:43:48;;;;;;;4.45;1.20;;;;;;;10.47;84.59;99462.25;4862831;29;20037;-71
2022/01/03 10:46:19;;;;;;;6.85;1.40;;;;;;;10.42;85.21;99461.88;4863687;29;20048;-70
2022/01/03 10:48:45;;;;;;;6.68;1.02;;;;;;;10.41;85.10;99457.50;4864800;29;20053;-71
2022/01/03 10:51:10;;;;;;;4.00;1.20;;;;;;;10.44;85.55;99456.38;4864447;29;20124;-71
2022/01/03 10:53:41;;;;;;;5.10;1.35;;;;;;;10.45;85.56;99461.56;4863920;29;20870;-70
2022/01/03 10:56:26;;;;;;;5.22;1.17;;;;;;;10.47;85.61;99445.38;4862120;29;20291;-70
2022/01/03 10:58:54;;;;;;;7.07;1.40;;;;;;;10.51;85.62;99454.78;4878965;29;20041;-70
2022/01/03 11:01:24;;;;;;;8.30;1.60;;;;;;;10.52;85.68;99449.28;4863955;29;20109;-70
2022/01/03 11:03:51;;;;;;;5.40;1.60;;;;;;;10.52;85.44;99451.13;4867235;29;20080;-71
2022/01/03 11:11:49;;;;;;;7.78;1.63;;;;;;;10.52;85.54;99429.72;4868509;29;20052;-70
2022/01/03 11:14:39;;;;;;;9.10;2.08;;;;;;;10.50;85.92;99421.88;4866350;29;20438;-70
2022/01/03 11:17:26;;;;;;;7.70;2.00;;;;;;;10.50;85.49;99421.03;4882339;29;20044;-71
2022/01/03 11:19:51;;;;;;;9.73;2.13;;;;;;;10.49;85.73;99420.19;4866510;29;20044;-70
2022/01/03 11:22:53;;;;;;;8.52;1.80;;;;;;;10.52;85.79;99401.16;4882767;29;20029;-71
2022/01/03 11:25:29;;;;;;;8.30;1.90;;;;;;;10.54;85.36;99404.53;4842764;29;20050;-70
2022/01/03 11:27:55;;;;;;;11.07;2.17;;;;;;;10.59;85.66;99414.75;4877427;29;20112;-71
2022/01/03 11:30:20;;;;;;;10.90;2.00;;;;;;;10.58;85.83;99405.06;4865835;29;20048;-71
2022/01/03 11:32:48;;;;;;;6.38;1.55;;;;;;;10.63;85.80;99408.13;4866746;29;20037;-71
2022/01/03 11:35:14;;;;;;;9.10;2.20;;;;;;;10.64;85.71;99399.09;4867090;29;20041;-71
2022/01/03 11:37:41;;;;;;;10.20;2.38;;;;;;;10.64;85.30;99397.28;4865566;29;20033;-71
2022/01/03 11:40:08;;;;;;;11.15;2.15;;;;;;;10.60;84.87;99395.06;4866284;29;20099;-70
2022/01/03 11:42:33;;;;;;;11.50;1.92;;;;;;;10.63;85.60;99387.56;4866394;29;20089;-70
2022/01/03 11:44:59;;;;;;;8.85;2.00;;;;;;;10.63;85.13;99382.22;4866283;29;21034;-71
2022/01/03 11:47:27;;;;;;;10.32;2.15;;;;;;;10.65;84.92;99379.41;4882867;29;20064;-71
2022/01/03 11:49:53;;;;;;;6.40;1.73;;;;;;;10.62;84.26;99380.53;4850430;29;20406;-71
2022/01/03 11:52:18;;;;;;;9.48;1.90;;;;;;;10.63;84.36;99373.38;4882960;29;20044;-71
2022/01/03 11:54:44;;;;;;;8.27;1.83;;;;;;;10.61;83.88;99370.84;4881566;29;20029;-70
2022/01/03 11:57:43;;;;;;;8.05;1.60;;;;;;;10.61;84.17;99370.84;4882584;29;20040;-71
2022/01/03 12:05:53;;;;;;;6.35;1.30;;;;;;;10.62;84.22;99367.16;4868463;29;20108;-71
2022/01/03 12:08:24;;;;;;;5.85;1.42;;;;;;;10.63;84.62;99362.66;4865896;29;20041;-71
2022/01/03 12:10:49;;;;;;;4.68;1.20;;;;;;;10.63;84.22;99368.84;4864829;29;20047;-71
2022/01/03 12:13:15;;;;;;;7.10;1.55;;;;;;;10.61;84.36;99357.47;4865876;29;20105;-71
2022/01/03 12:15:42;;;;;;;6.68;1.17;;;;;;;10.61;84.24;99356.63;4866008;29;20037;-71
2022/01/03 12:18:30;;;;;;;6.38;1.20;;;;;;;10.62;84.36;99351.13;4850410;29;20041;-71
2022/01/03 12:20:55;;;;;;;7.32;1.35;;;;;;;10.58;84.20;99343.56;4881751;29;20040;-71
2022/01/03 12:23:42;;;;;;;9.32;1.58;;;;;;;10.60;84.01;99346.94;4864441;29;20132;-71
2022/01/03 12:26:23;;;;;;;6.53;1.52;;;;;;;10.56;84.10;99362.44;4881283;29;20175;-71
2022/01/03 12:29:07;;;;;;;10.25;1.60;;;;;;;10.58;84.50;99340.91;4881639;29;20044;-70
2022/01/03 12:32:01;;;;;;;8.35;1.77;;;;;;;10.58;84.46;99340.91;4866102;29;20044;-71
2022/01/03 12:34:26;;;;;;;6.30;2.00;;;;;;;10.57;84.76;99328.53;4865058;29;20078;-71
2022/01/03 12:37:30;;;;;;;5.07;1.65;;;;;;;10.54;84.96;99315.47;4864421;29;20052;-71
2022/01/03 12:40:02;;;;;;;7.40;1.50;;;;;;;10.50;85.04;99333.66;4823112;29;20046;-71
2022/01/03 12:42:45;;;;;;;8.77;1.88;;;;;;;10.55;85.61;99314.47;4823553;29;20043;-72
2022/01/03 12:45:39;;;;;;;7.60;1.88;;;;;;;10.55;85.84;99312.63;4859895;29;20132;-70
2022/01/03 12:48:18;;;;;;;10.02;1.73;;;;;;;10.58;85.95;99327.53;4881765;29;20455;-71
2022/01/03 12:50:52;;;;;;;8.32;1.45;;;;;;;10.55;85.65;99328.69;4885802;29;20100;-71
2022/01/03 12:53:23;;;;;;;9.50;1.90;;;;;;;10.59;86.22;99321.19;4885383;29;20041;-70
2022/01/03 12:55:50;;;;;;;6.43;1.83;;;;;;;10.67;86.58;99321.25;4883928;29;20093;-70
2022/01/03 12:58:18;;;;;;;9.43;1.60;;;;;;;10.61;85.77;99308.50;4868752;29;20041;-84
2022/01/03 13:00:44;;;;;;;9.77;1.63;;;;;;;10.60;86.20;99314.84;4884173;29;20069;-78
2022/01/03 13:03:24;;;;;;;5.28;1.40;;;;;;;10.53;85.66;99308.44;4853392;29;20045;-79
2022/01/03 13:06:12;;;;;;;7.30;1.58;;;;;;;10.49;86.40;99318.59;4869960;29;20360;-79
2022/01/03 13:08:41;;;;;;;8.95;1.65;;;;;;;10.51;86.33;99291.72;4856611;29;20036;-78
2022/01/03 13:11:09;;;;;;;5.30;1.33;;;;;;;10.48;86.35;99284.00;4855231;29;20040;-78
2022/01/03 13:13:36;;;;;;;7.20;1.10;;;;;;;10.48;86.57;99279.50;4871397;29;20048;-78
2022/01/03 13:16:17;;;;;;;6.05;1.40;;;;;;;10.50;86.74;99276.66;4855880;29;20037;-80
2022/01/03 13:18:46;;;;;;;7.43;1.70;;;;;;;10.44;86.68;99264.75;4886451;29;20041;-80
2022/01/03 13:21:16;;;;;;;5.40;1.75;;;;;;;10.40;86.78;99261.56;4854881;29;20106;-78
2022/01/03 13:24:00;;;;;;;8.63;1.45;;;;;;;10.37;86.69;99261.00;4855232;29;20061;-78
2022/01/03 13:26:27;;;;;;;4.82;1.48;;;;;;;10.38;86.87;99260.84;4854321;29;20039;-79
2022/01/03 13:28:54;;;;;;;10.70;2.03;;;;;;;10.38;87.14;99257.34;4853706;29;20127;-80
2022/01/03 13:31:21;;;;;;;8.45;1.88;;;;;;;10.38;87.22;99252.81;4851655;29;20065;-80
2022/01/03 13:33:58;;;;;;;7.97;2.00;;;;;;;10.35;86.62;99238.94;4855096;29;20029;-82
2022/01/03 13:36:37;;;;;;;8.07;1.50;;;;;;;10.35;86.69;99242.44;4854646;29;20052;-82
2022/01/03 13:39:11;;;;;;;6.18;1.60;;;;;;;10.38;86.52;99242.13;4886978;29;20075;-80
2022/01/03 13:41:37;;;;;;;5.95;1.55;;;;;;;10.37;86.60;99236.94;4870209;29;20661;-79
2022/01/03 13:44:04;;;;;;;9.05;1.55;;;;;;;10.39;86.94;99229.59;4853965;29;20033;-80
2022/01/03 13:49:22;;;;;;;6.40;1.50;;;;;;;10.38;87.04;99215.41;4872363;29;20055;-78
2022/01/03 13:52:05;;;;;;;6.68;1.67;;;;;;;10.33;87.32;99209.69;4855362;29;20155;-81
2022/01/03 13:54:33;;;;;;;5.82;1.50;;;;;;;10.38;87.01;99209.22;4855924;29;20068;-80
2022/01/03 13:57:04;;;;;;;8.65;1.48;;;;;;;10.40;87.19;99204.56;4856058;29;20032;-79
2022/01/03 13:59:37;;;;;;;6.95;1.77;;;;;;;10.38;87.47;99196.69;4886731;29;20095;-80
2022/01/03 14:02:05;;;;;;;5.65;1.40;;;;;;;10.43;87.33;99198.09;4867639;29;20060;-80
2022/01/03 14:04:35;;;;;;;7.05;1.60;;;;;;;10.43;87.59;99204.28;4868250;29;20041;-79
2022/01/03 14:07:08;;;;;;;9.35;1.60;;;;;;;10.39;87.88;99189.53;4850794;29;20108;-79
2022/01/03 14:09:45;;;;;;;7.55;1.50;;;;;;;10.47;88.33;99197.63;4851381;29;20041;-79
2022/01/03 14:12:13;;;;;;;6.30;1.40;;;;;;;10.47;88.27;99194.94;4867872;29;20041;-81
2022/01/03 14:14:44;;;;;;;6.45;1.50;;;;;;;10.49;88.35;99195.63;4851453;29;20042;-79
2022/01/03 14:17:10;;;;;;;7.32;1.70;;;;;;;10.40;88.74;99193.88;4865832;29;20065;-78
2022/01/03 14:19:36;;;;;;;7.63;1.38;;;;;;;10.34;88.25;99183.81;4852063;29;20056;-82
2022/01/03 14:22:16;;;;;;;4.57;1.25;;;;;;;10.34;88.97;99163.25;4851369;29;20109;-81
2022/01/03 14:24:55;;;;;;;7.45;1.67;;;;;;;10.40;89.40;99170.69;4866569;29;20033;-79
2022/01/03 14:27:21;;;;;;;5.13;1.25;;;;;;;10.34;89.64;99160.59;4851417;29;20114;-80
2022/01/03 14:29:46;;;;;;;6.45;1.60;;;;;;;10.39;89.23;99168.13;4850571;29;20038;-81
2022/01/03 14:32:14;;;;;;;8.45;1.70;;;;;;;10.42;89.16;99153.66;4867349;29;20037;-81
2022/01/03 14:34:49;;;;;;;7.82;1.98;;;;;;;10.36;88.75;99163.94;4866909;29;20045;-79
2022/01/03 14:37:22;;;;;;;10.52;2.08;;;;;;;10.42;89.82;99148.31;4866882;29;20145;-80
2022/01/03 14:39:49;;;;;;;10.93;1.58;;;;;;;10.34;89.16;99144.56;4851546;29;20049;-78
2022/01/03 14:42:22;;;;;;;8.38;1.63;;;;;;;10.31;89.19;99136.84;4881403;29;20038;-80
2022/01/03 14:44:47;;;;;;;6.32;1.50;;;;;;;10.32;89.35;99133.19;4851642;29;20029;-79
2022/01/03 14:47:13;;;;;;;5.95;1.30;;;;;;;10.36;88.74;99139.91;4865280;29;20044;-79
2022/01/03 14:49:40;;;;;;;7.78;1.52;;;;;;;10.33;89.61;99142.88;4867014;29;20243;-80
2022/01/03 14:52:07;;;;;;;5.95;1.50;;;;;;;10.31;89.49;99128.00;4865480;29;20065;-80
2022/01/03 14:54:33;;;;;;;8.75;1.75;;;;;;;10.36;89.62;99131.03;4850642;29;20045;-80
2022/01/03 14:57:41;;;;;;;7.85;1.70;;;;;;;10.39;89.83;99117.34;4850609;29;20120;-80
2022/01/03 15:00:08;;;;;;;9.98;1.90;;;;;;;10.35;89.86;99113.31;4863089;29;20511;-78
2022/01/03 15:02:33;;;;;;;6.43;1.33;;;;;;;10.33;90.08;99113.47;4848248;29;20050;-80
2022/01/03 15:05:01;;;;;;;11.20;1.98;;;;;;;10.33;89.50;99108.13;4863544;29;20136;-79
2022/01/03 15:07:28;;;;;;;4.43;1.65;;;;;;;10.35;89.69;99116.00;4850702;29;20044;-81
2022/01/03 15:09:54;;;;;;;5.93;1.63;;;;;;;10.41;90.13;99094.00;4848822;29;20086;-79
2022/01/03 15:12:20;;;;;;;5.40;1.60;;;;;;;10.35;89.64;99091.94;4849452;29;20045;-81
2022/01/03 15:14:47;;;;;;;6.28;1.55;;;;;;;10.32;89.59;99093.09;4849609;29;20041;-81
2022/01/03 15:17:12;;;;;;;6.85;1.48;;;;;;;10.32;89.41;99090.44;4848118;29;20037;-82
2022/01/03 15:19:37;;;;;;;4.53;1.40;;;;;;;10.30;89.90;99088.91;4849102;29;20070;-82
2022/01/03 15:22:03;;;;;;;7.75;1.45;;;;;;;10.28;89.48;99097.09;4849204;29;20044;-80
2022/01/03 15:24:31;;;;;;;5.53;1.58;;;;;;;10.26;89.81;99109.75;4848699;29;20038;-81
2022/01/03 15:26:56;;;;;;;4.95;1.40;;;;;;;10.24;89.58;99106.41;4849433;29;20041;-79
2022/01/03 15:29:22;;;;;;;7.50;1.70;;;;;;;10.28;89.71;99097.09;4848900;29;20033;-80
2022/01/03 15:31:47;;;;;;;8.10;1.58;;;;;;;10.29;90.30;99093.41;4848924;29;20041;-80
2022/01/03 15:34:13;;;;;;;8.77;1.70;;;;;;;10.33;90.44;99081.41;4850094;29;20052;-81
2022/01/03 15:36:38;;;;;;;5.90;1.42;;;;;;;10.35;90.73;99070.56;4849594;29;20066;-82
2022/01/03 15:39:04;;;;;;;11.50;2.78;;;;;;;10.34;90.80;99071.56;4865855;29;20128;-81
2022/01/03 15:41:29;;;;;;;6.32;1.50;;;;;;;10.33;91.27;99078.75;4850671;29;20097;-80
2022/01/03 15:43:55;;;;;;;5.88;1.50;;;;;;;10.31;91.18;99099.44;4866230;29;20057;-79
2022/01/03 15:46:20;;;;;;;5.63;1.48;;;;;;;10.14;91.78;99120.84;4866364;29;20102;-79
2022/01/03 15:48:46;;;;;;;6.90;1.40;;;;;;;9.78;94.24;99111.03;4850575;29;20049;-79
2022/01/03 15:51:12;;;;;;;4.93;0.95;;;;;;;9.90;96.32;99102.78;4850393;29;20025;-79
2022/01/03 15:53:37;;;;;;;4.10;1.10;;;;;;;9.99;97.04;99110.72;4849810;29;20037;-80
2022/01/03 15:56:03;;;;;;;2.03;0.70;;;;;;;9.98;96.87;99105.53;4866614;29;20037;-80
2022/01/03 15:58:28;;;;;;;1.85;0.57;;;;;;;9.98;96.44;99101.03;4850573;29;20134;-79
2022/01/03 16:00:54;;;;;;;3.60;0.70;;;;;;;10.03;96.03;99098.72;4847671;29;20041;-74
2022/01/03 16:03:21;;;;;;;1.63;0.50;;;;;;;10.08;95.23;99099.09;4747902;29;1554758;-79
2022/01/03 16:05:49;;;;;;;2.45;0.75;;;;;;;10.06;95.26;99078.88;4840555;29;20042;-80
2022/01/03 16:08:15;;;;;;;1.27;0.50;;;;;;;10.05;94.87;99086.06;4862670;29;20042;-79
2022/01/03 16:10:40;;;;;;;1.33;0.50;;;;;;;10.07;94.53;99081.41;4858135;29;20152;-80
2022/01/03 16:13:05;;;;;;;2.28;0.50;;;;;;;10.06;94.66;99074.38;4845893;29;20041;-80
2022/01/03 16:15:31;;;;;;;1.00;0.50;;;;;;;10.08;94.62;99082.22;4848483;29;20057;-80
2022/01/03 16:17:57;;;;;;;2.17;0.70;;;;;;;10.06;93.86;99065.53;4847276;29;20041;-80
2022/01/03 16:20:25;;;;;;;2.13;0.85;;;;;;;10.08;93.77;99068.88;4847348;29;20086;-80
2022/01/03 16:22:50;;;;;;;2.50;0.80;;;;;;;10.05;94.07;99067.34;4845798;29;20046;-79
2022/01/03 16:25:17;;;;;;;2.05;0.80;;;;;;;10.05;93.92;99066.53;4845473;29;20109;-80
2022/01/03 16:27:44;;;;;;;2.05;0.60;;;;;;;10.09;93.90;99054.53;4845209;29;20041;-80
2022/01/03 16:30:09;;;;;;;1.50;0.60;;;;;;;10.11;93.78;99047.19;4842228;29;20042;-80
2022/01/03 16:32:40;;;;;;;1.65;0.50;;;;;;;10.08;93.70;99043.00;4859429;29;20034;-79
2022/01/03 16:35:07;;;;;;;2.55;0.70;;;;;;;10.08;93.61;99043.00;4844597;29;20046;-78
2022/01/03 16:37:33;;;;;;;2.15;0.70;;;;;;;10.10;93.59;99040.16;4845362;29;20041;-80
2022/01/03 16:39:58;;;;;;;1.60;0.57;;;;;;;10.09;94.02;99042.00;4829383;29;20042;-79
2022/01/03 16:42:24;;;;;;;4.32;0.77;;;;;;;10.11;93.83;99036.50;4847378;29;20042;-78
2022/01/03 16:44:52;;;;;;;1.90;0.70;;;;;;;10.16;93.80;99036.88;4847920;29;20042;-80
2022/01/03 16:47:18;;;;;;;3.03;0.77;;;;;;;10.11;93.96;99033.84;4862004;29;20048;-79
2022/01/03 16:49:43;;;;;;;2.80;0.80;;;;;;;10.14;93.68;99027.34;4847672;29;20045;-79
2022/01/03 16:52:09;;;;;;;2.75;0.90;;;;;;;10.07;93.72;99025.31;4833305;29;20045;-78
2022/01/03 16:54:35;;;;;;;3.75;0.98;;;;;;;10.08;94.29;99026.13;4859687;29;20031;-79
2022/01/03 16:57:00;;;;;;;2.58;0.60;;;;;;;10.10;94.29;99022.31;4859330;29;20057;-79
2022/01/03 16:59:25;;;;;;;1.75;1.17;;;;;;;10.10;94.07;99021.47;4844812;29;20189;-78
2022/01/03 17:01:52;;;;;;;2.75;0.90;;;;;;;10.09;94.25;99025.97;4845911;29;20054;-80
2022/01/03 17:04:18;;;;;;;2.53;0.85;;;;;;;10.15;94.39;99015.66;4859240;29;20059;-80
2022/01/03 17:06:43;;;;;;;3.30;0.75;;;;;;;10.13;94.76;99010.47;4847164;29;20097;-81
2022/01/03 17:09:08;;;;;;;3.05;0.98;;;;;;;10.11;94.32;99009.78;4859409;29;20085;-80
2022/01/03 17:11:34;;;;;;;2.65;1.17;;;;;;;10.10;94.50;99002.78;4845201;29;20110;-79
2022/01/03 17:13:59;;;;;;;2.20;1.10;;;;;;;10.13;94.56;98997.13;4860444;29;20037;-80
2022/01/03 17:16:25;;;;;;;3.33;1.27;;;;;;;10.06;94.28;98993.41;4846300;29;20052;-80
2022/01/03 17:18:50;;;;;;;2.95;1.10;;;;;;;10.08;94.25;99013.63;4844917;29;20066;-79
2022/01/03 17:21:16;;;;;;;3.90;1.20;;;;;;;10.15;94.87;99000.47;4843848;29;20395;-79
2022/01/03 17:23:41;;;;;;;3.47;1.65;;;;;;;10.12;94.59;98998.09;4842110;29;20030;-80
2022/01/03 17:26:42;;;;;;;2.67;1.20;;;;;;;10.12;94.47;98990.09;4847076;29;20033;-79
2022/01/03 17:29:08;;;;;;;4.47;1.20;;;;;;;10.10;94.23;98990.25;4856552;29;20041;-80
2022/01/03 17:31:34;;;;;;;1.83;0.98;;;;;;;10.15;94.90;99003.13;4845184;29;20048;-81
2022/01/03 17:33:59;;;;;;;2.15;0.90;;;;;;;10.10;94.37;98984.06;4845219;29;20109;-81
2022/01/03 17:36:27;;;;;;;1.70;0.80;;;;;;;10.14;94.26;98979.25;4831702;29;20041;-79
2022/01/03 17:38:54;;;;;;;2.08;0.90;;;;;;;10.12;94.53;98963.38;4859708;29;20048;-79
2022/01/03 17:41:20;;;;;;;3.05;0.95;;;;;;;10.12;94.05;98966.06;4835054;29;20106;-81
2022/01/03 17:43:45;;;;;;;1.95;0.80;;;;;;;10.06;94.45;98961.34;4864367;29;20045;-79
2022/01/03 17:46:11;;;;;;;1.85;1.00;;;;;;;10.05;94.45;98955.16;4849851;29;20046;-79
2022/01/03 17:48:37;;;;;;;1.10;0.63;;;;;;;10.01;93.97;98951.16;4848295;29;20057;-80
2022/01/03 17:51:04;;;;;;;2.25;0.70;;;;;;;9.99;94.96;98950.47;4833895;29;20033;-79
2022/01/03 17:53:29;;;;;;;1.92;0.65;;;;;;;9.98;94.35;98948.78;4848362;29;20066;-81
2022/01/03 17:55:55;;;;;;;1.17;0.63;;;;;;;9.97;94.40;98955.13;4864569;29;20048;-79
2022/01/03 17:58:20;;;;;;;2.17;0.80;;;;;;;10.06;94.42;98950.66;4849628;29;20037;-80
2022/01/03 18:00:46;;;;;;;1.85;0.60;;;;;;;9.99;94.27;98946.97;4851194;29;20052;-79
2022/01/03 18:03:11;;;;;;;1.70;0.70;;;;;;;10.02;94.43;98947.47;4863509;29;20137;-79
2022/01/03 18:05:37;;;;;;;1.25;0.60;;;;;;;10.02;94.34;98946.66;4851149;29;20078;-78
2022/01/03 18:08:03;;;;;;;1.45;0.63;;;;;;;10.05;94.46;98936.47;4835840;29;20034;-79
2022/01/03 18:10:28;;;;;;;1.75;0.70;;;;;;;9.97;94.04;98946.28;4834662;29;20042;-79
2022/01/03 18:13:03;;;;;;;2.67;0.70;;;;;;;10.00;94.28;98946.81;4850175;29;20592;-79
2022/01/03 18:15:29;;;;;;;2.72;0.75;;;;;;;10.04;94.46;98939.31;4850057;29;20046;-80
2022/01/03 18:17:54;;;;;;;1.75;0.50;;;;;;;9.97;94.54;98940.94;4835793;29;20122;-79
2022/01/03 18:20:25;;;;;;;1.27;0.60;;;;;;;9.96;94.51;98937.44;4851390;29;20046;-79
2022/01/03 18:22:50;;;;;;;2.20;0.63;;;;;;;9.93;94.27;98932.41;4864555;29;20033;-81
2022/01/03 18:25:15;;;;;;;1.58;0.52;;;;;;;9.97;94.77;98917.75;4851072;29;20032;-82
2022/01/03 18:27:42;;;;;;;2.38;0.68;;;;;;;9.98;94.61;98922.09;4851320;29;20061;-77
2022/01/03 18:30:10;;;;;;;2.47;0.90;;;;;;;9.97;94.23;98917.75;4850474;29;20061;-79
2022/01/03 18:32:35;;;;;;;1.33;0.80;;;;;;;9.90;94.74;98914.00;4850790;29;20021;-78
2022/01/03 18:35:01;;;;;;;1.17;0.93;;;;;;;9.95;94.67;98900.22;4848559;29;20034;-79
2022/01/03 18:37:26;;;;;;;2.08;0.70;;;;;;;10.00;94.57;98905.91;4850144;29;20041;-78
2022/01/03 18:39:51;;;;;;;1.40;0.80;;;;;;;9.94;94.72;98895.88;4849492;29;20045;-81
2022/01/03 18:42:17;;;;;;;1.13;0.90;;;;;;;9.95;94.98;98895.69;4849870;29;20049;-80
2022/01/03 18:44:42;;;;;;;2.25;1.10;;;;;;;9.93;94.47;98897.69;4850052;29;20038;-80
2022/01/03 18:47:07;;;;;;;2.20;1.10;;;;;;;9.90;94.34;98876.63;4849215;29;20037;-81
2022/01/03 18:49:33;;;;;;;2.13;1.13;;;;;;;9.91;94.24;98880.13;4848702;29;20041;-80
2022/01/03 18:51:58;;;;;;;2.28;1.23;;;;;;;9.91;94.34;98877.47;4848794;29;20026;-80
2022/01/03 18:54:23;;;;;;;3.17;1.13;;;;;;;9.95;94.40;98860.97;4848192;29;20074;-81
2022/01/03 18:56:50;;;;;;;3.42;1.30;;;;;;;9.92;94.71;98861.28;4832556;29;20114;-81
2022/01/03 18:59:16;;;;;;;2.78;1.58;;;;;;;9.94;94.88;98858.47;4848019;29;20045;-79
2022/01/03 19:01:42;;;;;;;2.75;1.70;;;;;;;9.90;94.57;98857.94;4848789;29;20157;-79
2022/01/03 19:04:07;;;;;;;3.55;1.65;;;;;;;9.90;94.86;98852.59;4863603;29;20046;-79
2022/01/03 19:06:32;;;;;;;3.85;1.95;;;;;;;10.01;94.72;98859.50;4864788;29;20046;-79
2022/01/03 19:08:58;;;;;;;3.47;2.15;;;;;;;9.96;95.07;98856.47;4849134;29;20049;-77
2022/01/03 19:11:23;;;;;;;5.53;2.75;;;;;;;9.95;94.99;98857.47;4848699;29;20964;-77
2022/01/03 19:13:52;;;;;;;5.10;2.30;;;;;;;9.94;95.22;98847.78;4864109;29;20061;-78
2022/01/03 19:16:18;;;;;;;;;;;;;;;9.93;94.93;98846.97;4864803;29;20037;-78
2022/01/03 19:18:43;;;;;;;6.63;2.10;;;;;;;9.97;95.24;98847.47;4864647;29;19997;-77
2022/01/03 19:21:09;;;;;;;4.45;2.22;;;;;;;9.98;94.88;98847.31;4863084;29;20081;-79
2022/01/03 19:23:36;;;;;;;5.85;2.25;;;;;;;9.97;94.89;98855.47;4848955;29;20038;-78
2022/01/03 19:26:02;;;;;;;5.07;2.20;;;;;;;10.00;94.99;98855.16;4863065;29;20068;-78
2022/01/03 19:28:27;;;;;;;4.65;2.30;;;;;;;9.94;95.16;98843.28;4849187;29;20073;-77
2022/01/03 19:30:52;;;;;;;3.95;2.33;;;;;;;9.96;94.83;98841.28;4864177;29;20086;-78
2022/01/03 19:37:55;;;;;;;6.57;2.28;;;;;;;9.97;95.02;98847.47;4833474;29;20033;-79
2022/01/03 19:38:50;;;;;;;6.97;2.33;;;;;;;9.98;94.83;98849.16;4848627;29;20048;-76
2022/01/03 19:41:16;;;;;;;6.57;2.50;;;;;;;9.96;95.04;98848.47;4833780;29;20483;-78
2022/01/03 19:43:42;;;;;;;7.55;2.85;;;;;;;9.98;95.05;98849.97;4864670;29;20515;-79
2022/01/03 19:46:08;;;;;;;6.20;2.40;;;;;;;9.97;95.09;98850.13;4834223;29;20363;-78
2022/01/03 19:48:34;;;;;;;7.38;2.83;;;;;;;9.95;94.86;98844.97;4849517;29;20057;-76
2022/01/03 19:51:00;;;;;;;6.57;2.30;;;;;;;9.98;95.40;98851.81;4846416;29;20831;-77
2022/01/03 19:53:26;;;;;;;4.82;2.30;;;;;;;9.99;95.08;98850.81;4847006;29;20073;-77
2022/01/03 19:55:51;;;;;;;6.10;2.45;;;;;;;9.96;95.24;98843.97;4831325;29;20038;-77
2022/01/03 19:58:16;;;;;;;7.78;2.33;;;;;;;9.93;95.20;98838.06;4846691;29;20128;-78
2022/01/03 20:00:42;;;;;;;5.85;2.33;;;;;;;9.98;95.60;98838.47;4833425;29;20554;-79